sensor_id;sensor_type;location;lat;lon;timestamp;P1;durP1;ratioP1;P2;durP2;ratioP2
23155;SDS011;11746;50.876;4.246;2022-12-18T00:01:19;47.55;;;23.70;;
23155;SDS011;11746;50.876;4.246;2022-12-18T00:03:49;45.08;;;22.98;;
23155;SDS011;11746;50.876;4.246;2022-12-18T00:06:16;41.58;;;21.90;;
23155;SDS011;11746;50.876;4.246;2022-12-18T00:08:44;44.35;;;22.92;;
23155;SDS011;11746;50.876;4.246;2022-12-18T00:11:12;44.25;;;21.85;;
23155;SDS011;11746;50.876;4.246;2022-12-18T00:13:45;42.05;;;21.33;;
23155;SDS011;11746;50.876;4.246;2022-12-18T00:16:17;45.92;;;20.98;;
23155;SDS011;11746;50.876;4.246;2022-12-18T00:18:48;44.72;;;21.83;;
23155;SDS011;11746;50.876;4.246;2022-12-18T00:21:18;42.47;;;21.27;;
23155;SDS011;11746;50.876;4.246;2022-12-18T00:23:45;43.85;;;21.48;;
23155;SDS011;11746;50.876;4.246;2022-12-18T00:26:14;40.42;;;20.27;;
23155;SDS011;11746;50.876;4.246;2022-12-18T00:28:42;41.78;;;20.83;;
23155;SDS011;11746;50.876;4.246;2022-12-18T00:31:13;40.38;;;20.58;;
23155;SDS011;11746;50.876;4.246;2022-12-18T00:33:41;42.83;;;20.25;;
23155;SDS011;11746;50.876;4.246;2022-12-18T00:36:24;40.28;;;20.10;;
23155;SDS011;11746;50.876;4.246;2022-12-18T00:38:56;40.50;;;20.67;;
23155;SDS011;11746;50.876;4.246;2022-12-18T00:41:24;38.17;;;20.40;;
23155;SDS011;11746;50.876;4.246;2022-12-18T00:44:11;38.28;;;19.15;;
23155;SDS011;11746;50.876;4.246;2022-12-18T00:46:39;39.15;;;19.20;;
23155;SDS011;11746;50.876;4.246;2022-12-18T00:49:06;41.17;;;21.17;;
23155;SDS011;11746;50.876;4.246;2022-12-18T00:51:32;39.58;;;19.30;;
23155;SDS011;11746;50.876;4.246;2022-12-18T00:53:58;40.80;;;20.33;;
23155;SDS011;11746;50.876;4.246;2022-12-18T00:56:25;36.88;;;19.58;;
23155;SDS011;11746;50.876;4.246;2022-12-18T00:58:51;40.50;;;20.52;;
23155;SDS011;11746;50.876;4.246;2022-12-18T01:01:16;36.85;;;18.75;;
23155;SDS011;11746;50.876;4.246;2022-12-18T01:03:50;38.85;;;19.65;;
23155;SDS011;11746;50.876;4.246;2022-12-18T01:06:16;36.53;;;18.52;;
23155;SDS011;11746;50.876;4.246;2022-12-18T01:08:42;35.20;;;19.08;;
23155;SDS011;11746;50.876;4.246;2022-12-18T01:11:09;35.13;;;18.85;;
23155;SDS011;11746;50.876;4.246;2022-12-18T01:13:39;35.67;;;18.58;;
23155;SDS011;11746;50.876;4.246;2022-12-18T01:16:05;40.28;;;19.40;;
23155;SDS011;11746;50.876;4.246;2022-12-18T01:18:31;36.67;;;19.08;;
23155;SDS011;11746;50.876;4.246;2022-12-18T01:20:59;35.42;;;18.08;;
23155;SDS011;11746;50.876;4.246;2022-12-18T01:23:25;37.03;;;18.25;;
23155;SDS011;11746;50.876;4.246;2022-12-18T01:25:51;36.83;;;18.75;;
23155;SDS011;11746;50.876;4.246;2022-12-18T01:28:17;35.80;;;17.45;;
23155;SDS011;11746;50.876;4.246;2022-12-18T01:30:43;33.97;;;17.02;;
23155;SDS011;11746;50.876;4.246;2022-12-18T01:33:09;34.15;;;16.83;;
23155;SDS011;11746;50.876;4.246;2022-12-18T01:35:39;30.98;;;16.70;;
23155;SDS011;11746;50.876;4.246;2022-12-18T01:38:06;31.17;;;16.40;;
23155;SDS011;11746;50.876;4.246;2022-12-18T01:40:32;32.90;;;16.58;;
23155;SDS011;11746;50.876;4.246;2022-12-18T01:42:58;30.17;;;15.35;;
23155;SDS011;11746;50.876;4.246;2022-12-18T01:45:27;30.98;;;15.93;;
23155;SDS011;11746;50.876;4.246;2022-12-18T01:48:05;28.60;;;14.77;;
23155;SDS011;11746;50.876;4.246;2022-12-18T01:50:34;28.35;;;14.55;;
23155;SDS011;11746;50.876;4.246;2022-12-18T01:53:10;29.90;;;15.20;;
23155;SDS011;11746;50.876;4.246;2022-12-18T01:55:48;27.60;;;15.70;;
23155;SDS011;11746;50.876;4.246;2022-12-18T01:58:23;29.67;;;15.30;;
23155;SDS011;11746;50.876;4.246;2022-12-18T02:00:54;30.75;;;14.65;;
23155;SDS011;11746;50.876;4.246;2022-12-18T02:03:25;28.90;;;15.73;;
23155;SDS011;11746;50.876;4.246;2022-12-18T02:11:30;28.70;;;13.70;;
23155;SDS011;11746;50.876;4.246;2022-12-18T02:16:51;27.23;;;13.13;;
23155;SDS011;11746;50.876;4.246;2022-12-18T02:24:42;25.05;;;13.70;;
23155;SDS011;11746;50.876;4.246;2022-12-18T02:27:24;26.85;;;13.95;;
23155;SDS011;11746;50.876;4.246;2022-12-18T02:29:51;29.05;;;13.73;;
23155;SDS011;11746;50.876;4.246;2022-12-18T02:32:25;26.50;;;13.57;;
23155;SDS011;11746;50.876;4.246;2022-12-18T02:34:55;26.63;;;13.93;;
23155;SDS011;11746;50.876;4.246;2022-12-18T02:37:24;25.00;;;13.50;;
23155;SDS011;11746;50.876;4.246;2022-12-18T02:39:53;25.80;;;13.30;;
23155;SDS011;11746;50.876;4.246;2022-12-18T02:42:24;23.90;;;12.90;;
23155;SDS011;11746;50.876;4.246;2022-12-18T02:44:53;24.80;;;13.88;;
23155;SDS011;11746;50.876;4.246;2022-12-18T02:47:21;23.15;;;12.80;;
23155;SDS011;11746;50.876;4.246;2022-12-18T02:52:42;25.35;;;12.80;;
23155;SDS011;11746;50.876;4.246;2022-12-18T03:00:58;25.30;;;12.90;;
23155;SDS011;11746;50.876;4.246;2022-12-18T03:03:48;26.08;;;13.48;;
23155;SDS011;11746;50.876;4.246;2022-12-18T03:06:33;28.05;;;13.88;;
23155;SDS011;11746;50.876;4.246;2022-12-18T03:09:09;25.50;;;13.23;;
23155;SDS011;11746;50.876;4.246;2022-12-18T03:11:41;27.63;;;13.20;;
23155;SDS011;11746;50.876;4.246;2022-12-18T03:14:28;22.90;;;12.48;;
23155;SDS011;11746;50.876;4.246;2022-12-18T03:16:57;26.10;;;13.27;;
23155;SDS011;11746;50.876;4.246;2022-12-18T03:19:27;25.88;;;13.43;;
23155;SDS011;11746;50.876;4.246;2022-12-18T03:21:57;23.40;;;11.70;;
23155;SDS011;11746;50.876;4.246;2022-12-18T03:24:26;25.58;;;12.23;;
23155;SDS011;11746;50.876;4.246;2022-12-18T03:26:57;24.45;;;12.75;;
23155;SDS011;11746;50.876;4.246;2022-12-18T03:29:29;23.13;;;11.95;;
23155;SDS011;11746;50.876;4.246;2022-12-18T03:32:10;20.73;;;11.75;;
23155;SDS011;11746;50.876;4.246;2022-12-18T03:34:43;21.73;;;11.77;;
23155;SDS011;11746;50.876;4.246;2022-12-18T03:37:15;22.63;;;12.05;;
23155;SDS011;11746;50.876;4.246;2022-12-18T03:39:41;23.52;;;11.75;;
23155;SDS011;11746;50.876;4.246;2022-12-18T03:42:14;21.48;;;11.43;;
23155;SDS011;11746;50.876;4.246;2022-12-18T03:47:34;20.50;;;10.48;;
23155;SDS011;11746;50.876;4.246;2022-12-18T03:50:12;21.13;;;10.90;;
23155;SDS011;11746;50.876;4.246;2022-12-18T03:52:44;21.88;;;10.55;;
23155;SDS011;11746;50.876;4.246;2022-12-18T03:55:18;18.73;;;10.70;;
23155;SDS011;11746;50.876;4.246;2022-12-18T03:57:45;18.58;;;9.88;;
23155;SDS011;11746;50.876;4.246;2022-12-18T04:00:14;19.77;;;10.70;;
23155;SDS011;11746;50.876;4.246;2022-12-18T04:02:50;18.85;;;10.13;;
23155;SDS011;11746;50.876;4.246;2022-12-18T04:05:19;21.55;;;10.90;;
23155;SDS011;11746;50.876;4.246;2022-12-18T04:07:47;18.65;;;10.48;;
23155;SDS011;11746;50.876;4.246;2022-12-18T04:10:14;20.48;;;9.93;;
23155;SDS011;11746;50.876;4.246;2022-12-18T04:12:42;19.23;;;10.35;;
23155;SDS011;11746;50.876;4.246;2022-12-18T04:15:08;21.05;;;10.00;;
23155;SDS011;11746;50.876;4.246;2022-12-18T04:17:35;18.30;;;10.18;;
23155;SDS011;11746;50.876;4.246;2022-12-18T04:20:09;21.90;;;11.00;;
23155;SDS011;11746;50.876;4.246;2022-12-18T04:22:35;18.85;;;10.07;;
23155;SDS011;11746;50.876;4.246;2022-12-18T04:25:00;22.67;;;10.90;;
23155;SDS011;11746;50.876;4.246;2022-12-18T04:27:26;20.30;;;10.00;;
23155;SDS011;11746;50.876;4.246;2022-12-18T04:29:52;17.05;;;9.80;;
23155;SDS011;11746;50.876;4.246;2022-12-18T04:32:18;20.30;;;10.07;;
23155;SDS011;11746;50.876;4.246;2022-12-18T04:34:43;19.52;;;9.82;;
23155;SDS011;11746;50.876;4.246;2022-12-18T04:37:10;18.80;;;10.15;;
23155;SDS011;11746;50.876;4.246;2022-12-18T04:39:39;20.85;;;9.93;;
23155;SDS011;11746;50.876;4.246;2022-12-18T04:42:05;19.63;;;10.40;;
23155;SDS011;11746;50.876;4.246;2022-12-18T04:44:35;19.23;;;10.57;;
23155;SDS011;11746;50.876;4.246;2022-12-18T04:47:01;17.95;;;9.27;;
23155;SDS011;11746;50.876;4.246;2022-12-18T04:49:27;20.00;;;10.35;;
23155;SDS011;11746;50.876;4.246;2022-12-18T04:51:53;20.00;;;10.43;;
23155;SDS011;11746;50.876;4.246;2022-12-18T04:54:19;20.88;;;11.07;;
23155;SDS011;11746;50.876;4.246;2022-12-18T04:56:47;18.67;;;10.95;;
23155;SDS011;11746;50.876;4.246;2022-12-18T04:59:13;21.17;;;12.20;;
23155;SDS011;11746;50.876;4.246;2022-12-18T05:01:39;19.75;;;11.65;;
23155;SDS011;11746;50.876;4.246;2022-12-18T05:04:05;22.30;;;11.68;;
23155;SDS011;11746;50.876;4.246;2022-12-18T05:06:31;23.52;;;12.00;;
23155;SDS011;11746;50.876;4.246;2022-12-18T05:08:57;23.88;;;13.52;;
23155;SDS011;11746;50.876;4.246;2022-12-18T05:11:25;27.23;;;14.63;;
23155;SDS011;11746;50.876;4.246;2022-12-18T05:13:50;20.55;;;12.43;;
23155;SDS011;11746;50.876;4.246;2022-12-18T05:16:16;21.45;;;12.52;;
23155;SDS011;11746;50.876;4.246;2022-12-18T05:18:44;33.75;;;19.23;;
23155;SDS011;11746;50.876;4.246;2022-12-18T05:21:09;24.80;;;14.88;;
23155;SDS011;11746;50.876;4.246;2022-12-18T05:23:36;22.70;;;13.40;;
23155;SDS011;11746;50.876;4.246;2022-12-18T05:26:03;25.02;;;14.48;;
23155;SDS011;11746;50.876;4.246;2022-12-18T05:28:31;21.60;;;11.88;;
23155;SDS011;11746;50.876;4.246;2022-12-18T05:31:00;21.13;;;12.48;;
23155;SDS011;11746;50.876;4.246;2022-12-18T05:33:28;19.65;;;11.32;;
23155;SDS011;11746;50.876;4.246;2022-12-18T05:35:57;25.45;;;12.88;;
23155;SDS011;11746;50.876;4.246;2022-12-18T05:38:24;28.88;;;15.25;;
23155;SDS011;11746;50.876;4.246;2022-12-18T05:40:51;29.58;;;16.52;;
23155;SDS011;11746;50.876;4.246;2022-12-18T05:43:21;19.35;;;11.18;;
23155;SDS011;11746;50.876;4.246;2022-12-18T05:45:54;19.27;;;10.43;;
23155;SDS011;11746;50.876;4.246;2022-12-18T05:48:21;18.45;;;11.23;;
23155;SDS011;11746;50.876;4.246;2022-12-18T05:50:48;21.67;;;12.30;;
23155;SDS011;11746;50.876;4.246;2022-12-18T05:53:18;20.45;;;10.82;;
23155;SDS011;11746;50.876;4.246;2022-12-18T05:55:45;23.25;;;11.35;;
23155;SDS011;11746;50.876;4.246;2022-12-18T05:58:12;21.52;;;10.98;;
23155;SDS011;11746;50.876;4.246;2022-12-18T06:00:40;20.35;;;11.15;;
23155;SDS011;11746;50.876;4.246;2022-12-18T06:03:08;19.55;;;11.27;;
23155;SDS011;11746;50.876;4.246;2022-12-18T06:05:39;17.42;;;9.70;;
23155;SDS011;11746;50.876;4.246;2022-12-18T06:08:06;21.13;;;10.13;;
23155;SDS011;11746;50.876;4.246;2022-12-18T06:10:33;19.05;;;9.90;;
23155;SDS011;11746;50.876;4.246;2022-12-18T06:12:59;20.95;;;11.13;;
23155;SDS011;11746;50.876;4.246;2022-12-18T06:15:25;22.13;;;11.00;;
23155;SDS011;11746;50.876;4.246;2022-12-18T06:17:51;24.13;;;12.38;;
23155;SDS011;11746;50.876;4.246;2022-12-18T06:20:17;20.70;;;10.48;;
23155;SDS011;11746;50.876;4.246;2022-12-18T06:22:43;18.85;;;9.40;;
23155;SDS011;11746;50.876;4.246;2022-12-18T06:25:09;17.85;;;9.65;;
23155;SDS011;11746;50.876;4.246;2022-12-18T06:27:35;19.33;;;10.95;;
23155;SDS011;11746;50.876;4.246;2022-12-18T06:30:13;19.42;;;10.35;;
23155;SDS011;11746;50.876;4.246;2022-12-18T06:32:38;19.65;;;10.02;;
23155;SDS011;11746;50.876;4.246;2022-12-18T06:35:07;19.88;;;10.55;;
23155;SDS011;11746;50.876;4.246;2022-12-18T06:37:33;17.58;;;9.65;;
23155;SDS011;11746;50.876;4.246;2022-12-18T06:39:59;18.70;;;9.88;;
23155;SDS011;11746;50.876;4.246;2022-12-18T06:42:26;23.70;;;11.55;;
23155;SDS011;11746;50.876;4.246;2022-12-18T06:44:54;23.58;;;11.38;;
23155;SDS011;11746;50.876;4.246;2022-12-18T06:47:19;22.42;;;11.15;;
23155;SDS011;11746;50.876;4.246;2022-12-18T06:49:45;23.55;;;10.90;;
23155;SDS011;11746;50.876;4.246;2022-12-18T06:52:10;20.60;;;10.95;;
23155;SDS011;11746;50.876;4.246;2022-12-18T06:54:39;21.35;;;11.40;;
23155;SDS011;11746;50.876;4.246;2022-12-18T06:57:05;19.38;;;10.05;;
23155;SDS011;11746;50.876;4.246;2022-12-18T06:59:30;18.48;;;9.88;;
23155;SDS011;11746;50.876;4.246;2022-12-18T07:01:56;25.95;;;14.40;;
23155;SDS011;11746;50.876;4.246;2022-12-18T07:04:24;19.17;;;10.32;;
23155;SDS011;11746;50.876;4.246;2022-12-18T07:06:55;20.97;;;11.20;;
23155;SDS011;11746;50.876;4.246;2022-12-18T07:09:22;19.75;;;10.15;;
23155;SDS011;11746;50.876;4.246;2022-12-18T07:11:48;13.40;;;8.02;;
23155;SDS011;11746;50.876;4.246;2022-12-18T07:14:13;17.58;;;8.07;;
23155;SDS011;11746;50.876;4.246;2022-12-18T07:16:39;17.92;;;9.45;;
23155;SDS011;11746;50.876;4.246;2022-12-18T07:19:05;16.52;;;8.45;;
23155;SDS011;11746;50.876;4.246;2022-12-18T07:21:31;17.90;;;8.77;;
23155;SDS011;11746;50.876;4.246;2022-12-18T07:23:57;15.48;;;8.52;;
23155;SDS011;11746;50.876;4.246;2022-12-18T07:26:22;17.38;;;8.85;;
23155;SDS011;11746;50.876;4.246;2022-12-18T07:28:49;15.75;;;8.55;;
23155;SDS011;11746;50.876;4.246;2022-12-18T07:31:17;18.63;;;9.77;;
23155;SDS011;11746;50.876;4.246;2022-12-18T07:33:45;14.93;;;8.70;;
23155;SDS011;11746;50.876;4.246;2022-12-18T07:36:11;12.80;;;7.25;;
23155;SDS011;11746;50.876;4.246;2022-12-18T07:38:38;13.82;;;7.90;;
23155;SDS011;11746;50.876;4.246;2022-12-18T07:41:08;15.65;;;9.00;;
23155;SDS011;11746;50.876;4.246;2022-12-18T07:43:35;16.17;;;8.55;;
23155;SDS011;11746;50.876;4.246;2022-12-18T07:46:04;16.88;;;9.45;;
23155;SDS011;11746;50.876;4.246;2022-12-18T07:48:31;16.77;;;9.00;;
23155;SDS011;11746;50.876;4.246;2022-12-18T07:51:00;18.17;;;10.27;;
23155;SDS011;11746;50.876;4.246;2022-12-18T07:53:26;16.95;;;9.60;;
23155;SDS011;11746;50.876;4.246;2022-12-18T07:55:56;17.00;;;9.38;;
23155;SDS011;11746;50.876;4.246;2022-12-18T07:58:23;17.58;;;9.10;;
23155;SDS011;11746;50.876;4.246;2022-12-18T08:00:51;18.17;;;10.23;;
23155;SDS011;11746;50.876;4.246;2022-12-18T08:03:18;15.75;;;8.63;;
23155;SDS011;11746;50.876;4.246;2022-12-18T08:05:44;21.33;;;10.02;;
23155;SDS011;11746;50.876;4.246;2022-12-18T08:08:10;25.40;;;10.02;;
23155;SDS011;11746;50.876;4.246;2022-12-18T08:10:38;18.90;;;10.10;;
23155;SDS011;11746;50.876;4.246;2022-12-18T08:13:04;18.25;;;9.38;;
23155;SDS011;11746;50.876;4.246;2022-12-18T08:15:29;19.65;;;9.38;;
23155;SDS011;11746;50.876;4.246;2022-12-18T08:17:57;13.77;;;7.45;;
23155;SDS011;11746;50.876;4.246;2022-12-18T08:20:23;12.63;;;6.88;;
23155;SDS011;11746;50.876;4.246;2022-12-18T08:22:51;12.95;;;6.40;;
23155;SDS011;11746;50.876;4.246;2022-12-18T08:25:19;10.63;;;6.47;;
23155;SDS011;11746;50.876;4.246;2022-12-18T08:27:47;12.27;;;6.38;;
23155;SDS011;11746;50.876;4.246;2022-12-18T08:30:13;13.25;;;6.60;;
23155;SDS011;11746;50.876;4.246;2022-12-18T08:32:39;11.73;;;6.38;;
23155;SDS011;11746;50.876;4.246;2022-12-18T08:35:07;13.30;;;7.32;;
23155;SDS011;11746;50.876;4.246;2022-12-18T08:37:36;13.73;;;6.72;;
23155;SDS011;11746;50.876;4.246;2022-12-18T08:40:05;11.40;;;6.25;;
23155;SDS011;11746;50.876;4.246;2022-12-18T08:42:32;12.98;;;7.05;;
23155;SDS011;11746;50.876;4.246;2022-12-18T08:45:16;12.20;;;6.35;;
23155;SDS011;11746;50.876;4.246;2022-12-18T08:47:42;12.07;;;6.40;;
23155;SDS011;11746;50.876;4.246;2022-12-18T08:50:09;13.93;;;6.85;;
23155;SDS011;11746;50.876;4.246;2022-12-18T08:52:36;12.13;;;6.82;;
23155;SDS011;11746;50.876;4.246;2022-12-18T08:55:03;12.40;;;7.07;;
23155;SDS011;11746;50.876;4.246;2022-12-18T08:57:30;10.82;;;6.50;;
23155;SDS011;11746;50.876;4.246;2022-12-18T08:59:58;12.45;;;7.00;;
23155;SDS011;11746;50.876;4.246;2022-12-18T09:02:24;14.38;;;7.13;;
23155;SDS011;11746;50.876;4.246;2022-12-18T09:04:50;13.88;;;7.18;;
23155;SDS011;11746;50.876;4.246;2022-12-18T09:07:16;12.82;;;6.70;;
23155;SDS011;11746;50.876;4.246;2022-12-18T09:09:41;14.00;;;7.13;;
23155;SDS011;11746;50.876;4.246;2022-12-18T09:12:07;13.98;;;6.90;;
23155;SDS011;11746;50.876;4.246;2022-12-18T09:14:33;12.18;;;6.90;;
23155;SDS011;11746;50.876;4.246;2022-12-18T09:16:59;11.18;;;7.13;;
23155;SDS011;11746;50.876;4.246;2022-12-18T09:19:25;20.02;;;12.23;;
23155;SDS011;11746;50.876;4.246;2022-12-18T09:21:51;19.42;;;13.38;;
23155;SDS011;11746;50.876;4.246;2022-12-18T09:24:17;21.95;;;13.60;;
23155;SDS011;11746;50.876;4.246;2022-12-18T09:26:43;18.88;;;11.43;;
23155;SDS011;11746;50.876;4.246;2022-12-18T09:29:09;11.85;;;7.90;;
23155;SDS011;11746;50.876;4.246;2022-12-18T09:31:35;15.38;;;8.43;;
23155;SDS011;11746;50.876;4.246;2022-12-18T09:34:01;12.65;;;7.55;;
23155;SDS011;11746;50.876;4.246;2022-12-18T09:36:30;14.85;;;8.52;;
23155;SDS011;11746;50.876;4.246;2022-12-18T09:38:58;14.70;;;8.80;;
23155;SDS011;11746;50.876;4.246;2022-12-18T09:44:05;16.88;;;9.93;;
23155;SDS011;11746;50.876;4.246;2022-12-18T09:46:57;15.63;;;9.38;;
23155;SDS011;11746;50.876;4.246;2022-12-18T09:50:01;25.25;;;13.55;;
23155;SDS011;11746;50.876;4.246;2022-12-18T09:55:05;19.17;;;10.77;;
23155;SDS011;11746;50.876;4.246;2022-12-18T09:57:39;16.00;;;10.20;;
23155;SDS011;11746;50.876;4.246;2022-12-18T10:02:48;18.75;;;10.70;;
23155;SDS011;11746;50.876;4.246;2022-12-18T10:05:20;13.90;;;8.73;;
23155;SDS011;11746;50.876;4.246;2022-12-18T10:08:17;15.27;;;8.73;;
23155;SDS011;11746;50.876;4.246;2022-12-18T10:10:53;16.50;;;8.88;;
23155;SDS011;11746;50.876;4.246;2022-12-18T10:16:35;14.77;;;8.68;;
23155;SDS011;11746;50.876;4.246;2022-12-18T10:19:29;16.00;;;9.13;;
23155;SDS011;11746;50.876;4.246;2022-12-18T10:27:26;15.15;;;9.57;;
23155;SDS011;11746;50.876;4.246;2022-12-18T10:29:54;15.13;;;8.80;;
23155;SDS011;11746;50.876;4.246;2022-12-18T10:32:21;16.30;;;8.95;;
23155;SDS011;11746;50.876;4.246;2022-12-18T10:34:52;17.30;;;9.40;;
23155;SDS011;11746;50.876;4.246;2022-12-18T10:37:24;16.50;;;9.05;;
23155;SDS011;11746;50.876;4.246;2022-12-18T10:42:32;20.38;;;12.48;;
23155;SDS011;11746;50.876;4.246;2022-12-18T10:45:03;20.90;;;12.70;;
23155;SDS011;11746;50.876;4.246;2022-12-18T10:47:48;17.75;;;9.75;;
23155;SDS011;11746;50.876;4.246;2022-12-18T10:50:19;16.15;;;9.80;;
23155;SDS011;11746;50.876;4.246;2022-12-18T10:52:55;17.17;;;9.70;;
23155;SDS011;11746;50.876;4.246;2022-12-18T10:55:24;19.45;;;11.10;;
23155;SDS011;11746;50.876;4.246;2022-12-18T10:58:01;15.98;;;9.73;;
23155;SDS011;11746;50.876;4.246;2022-12-18T11:03:39;17.00;;;10.00;;
23155;SDS011;11746;50.876;4.246;2022-12-18T11:09:01;17.30;;;9.70;;
23155;SDS011;11746;50.876;4.246;2022-12-18T11:11:57;18.30;;;9.93;;
23155;SDS011;11746;50.876;4.246;2022-12-18T11:14:47;17.73;;;11.10;;
23155;SDS011;11746;50.876;4.246;2022-12-18T11:19:55;17.98;;;10.45;;
23155;SDS011;11746;50.876;4.246;2022-12-18T11:22:30;17.42;;;9.05;;
23155;SDS011;11746;50.876;4.246;2022-12-18T11:24:58;20.20;;;11.05;;
23155;SDS011;11746;50.876;4.246;2022-12-18T11:27:26;16.10;;;10.60;;
23155;SDS011;11746;50.876;4.246;2022-12-18T11:30:06;17.63;;;10.85;;
23155;SDS011;11746;50.876;4.246;2022-12-18T11:32:45;17.45;;;10.95;;
23155;SDS011;11746;50.876;4.246;2022-12-18T11:38:19;20.42;;;13.05;;
23155;SDS011;11746;50.876;4.246;2022-12-18T11:40:56;28.50;;;16.50;;
23155;SDS011;11746;50.876;4.246;2022-12-18T11:43:33;21.95;;;10.63;;
23155;SDS011;11746;50.876;4.246;2022-12-18T11:46:07;16.77;;;10.13;;
23155;SDS011;11746;50.876;4.246;2022-12-18T11:48:38;14.52;;;8.77;;
23155;SDS011;11746;50.876;4.246;2022-12-18T11:51:32;19.40;;;10.82;;
23155;SDS011;11746;50.876;4.246;2022-12-18T11:54:19;16.52;;;9.73;;
23155;SDS011;11746;50.876;4.246;2022-12-18T11:56:56;16.75;;;8.73;;
23155;SDS011;11746;50.876;4.246;2022-12-18T11:59:47;14.60;;;8.32;;
23155;SDS011;11746;50.876;4.246;2022-12-18T12:02:49;72.78;;;31.80;;
23155;SDS011;11746;50.876;4.246;2022-12-18T12:16:28;63.90;;;29.30;;
23155;SDS011;11746;50.876;4.246;2022-12-18T12:21:53;29.02;;;19.88;;
23155;SDS011;11746;50.876;4.246;2022-12-18T12:32:19;16.40;;;10.05;;
23155;SDS011;11746;50.876;4.246;2022-12-18T12:40:29;20.50;;;12.30;;
23155;SDS011;11746;50.876;4.246;2022-12-18T12:42:59;18.70;;;10.10;;
23155;SDS011;11746;50.876;4.246;2022-12-18T12:48:16;20.15;;;11.77;;
23155;SDS011;11746;50.876;4.246;2022-12-18T12:50:51;23.58;;;12.40;;
23155;SDS011;11746;50.876;4.246;2022-12-18T12:53:23;18.38;;;11.02;;
23155;SDS011;11746;50.876;4.246;2022-12-18T12:55:54;18.08;;;10.40;;
23155;SDS011;11746;50.876;4.246;2022-12-18T12:58:31;19.35;;;10.68;;
23155;SDS011;11746;50.876;4.246;2022-12-18T13:06:51;20.33;;;11.63;;
23155;SDS011;11746;50.876;4.246;2022-12-18T13:09:32;21.92;;;11.95;;
23155;SDS011;11746;50.876;4.246;2022-12-18T13:12:03;22.98;;;12.50;;
23155;SDS011;11746;50.876;4.246;2022-12-18T13:14:48;27.77;;;14.25;;
23155;SDS011;11746;50.876;4.246;2022-12-18T13:19:49;27.48;;;15.10;;
23155;SDS011;11746;50.876;4.246;2022-12-18T13:22:50;30.70;;;17.58;;
23155;SDS011;11746;50.876;4.246;2022-12-18T13:38:39;27.05;;;14.23;;
23155;SDS011;11746;50.876;4.246;2022-12-18T13:43:49;21.48;;;12.23;;
23155;SDS011;11746;50.876;4.246;2022-12-18T13:48:49;22.40;;;12.55;;
23155;SDS011;11746;50.876;4.246;2022-12-18T13:51:16;22.88;;;13.70;;
23155;SDS011;11746;50.876;4.246;2022-12-18T13:53:45;26.05;;;12.70;;
23155;SDS011;11746;50.876;4.246;2022-12-18T13:56:16;23.17;;;12.63;;
23155;SDS011;11746;50.876;4.246;2022-12-18T13:58:43;23.35;;;13.20;;
23155;SDS011;11746;50.876;4.246;2022-12-18T14:01:21;24.85;;;13.40;;
23155;SDS011;11746;50.876;4.246;2022-12-18T14:03:48;23.98;;;13.77;;
23155;SDS011;11746;50.876;4.246;2022-12-18T14:06:13;25.50;;;13.88;;
23155;SDS011;11746;50.876;4.246;2022-12-18T14:08:41;27.50;;;14.48;;
23155;SDS011;11746;50.876;4.246;2022-12-18T14:11:17;25.85;;;14.15;;
23155;SDS011;11746;50.876;4.246;2022-12-18T14:13:49;27.42;;;14.15;;
23155;SDS011;11746;50.876;4.246;2022-12-18T14:16:18;25.88;;;14.02;;
23155;SDS011;11746;50.876;4.246;2022-12-18T14:18:54;26.50;;;14.32;;
23155;SDS011;11746;50.876;4.246;2022-12-18T14:21:23;27.30;;;14.18;;
23155;SDS011;11746;50.876;4.246;2022-12-18T14:24:04;25.02;;;13.65;;
23155;SDS011;11746;50.876;4.246;2022-12-18T14:26:37;25.77;;;13.60;;
23155;SDS011;11746;50.876;4.246;2022-12-18T14:29:36;28.83;;;13.88;;
23155;SDS011;11746;50.876;4.246;2022-12-18T14:34:53;27.05;;;14.13;;
23155;SDS011;11746;50.876;4.246;2022-12-18T14:37:20;29.05;;;15.00;;
23155;SDS011;11746;50.876;4.246;2022-12-18T14:39:52;27.88;;;14.98;;
23155;SDS011;11746;50.876;4.246;2022-12-18T14:42:28;24.50;;;14.32;;
23155;SDS011;11746;50.876;4.246;2022-12-18T14:48:00;35.15;;;18.50;;
23155;SDS011;11746;50.876;4.246;2022-12-18T14:50:32;44.58;;;24.73;;
23155;SDS011;11746;50.876;4.246;2022-12-18T14:52:57;52.58;;;28.40;;
23155;SDS011;11746;50.876;4.246;2022-12-18T14:55:26;54.00;;;26.92;;
23155;SDS011;11746;50.876;4.246;2022-12-18T14:57:56;30.50;;;17.80;;
23155;SDS011;11746;50.876;4.246;2022-12-18T15:00:23;29.70;;;16.02;;
23155;SDS011;11746;50.876;4.246;2022-12-18T15:02:56;27.45;;;15.13;;
23155;SDS011;11746;50.876;4.246;2022-12-18T15:05:30;28.13;;;16.17;;
23155;SDS011;11746;50.876;4.246;2022-12-18T15:07:58;30.65;;;15.50;;
23155;SDS011;11746;50.876;4.246;2022-12-18T15:10:25;28.73;;;15.32;;
23155;SDS011;11746;50.876;4.246;2022-12-18T15:15:46;30.35;;;15.30;;
23155;SDS011;11746;50.876;4.246;2022-12-18T15:18:13;31.30;;;15.50;;
23155;SDS011;11746;50.876;4.246;2022-12-18T15:25:44;26.23;;;14.32;;
23155;SDS011;11746;50.876;4.246;2022-12-18T15:28:15;27.50;;;15.43;;
23155;SDS011;11746;50.876;4.246;2022-12-18T15:31:06;25.55;;;14.25;;
23155;SDS011;11746;50.876;4.246;2022-12-18T15:33:38;26.33;;;14.20;;
23155;SDS011;11746;50.876;4.246;2022-12-18T15:36:10;28.27;;;14.98;;
23155;SDS011;11746;50.876;4.246;2022-12-18T15:38:37;29.80;;;15.30;;
23155;SDS011;11746;50.876;4.246;2022-12-18T15:41:03;32.05;;;16.80;;
23155;SDS011;11746;50.876;4.246;2022-12-18T15:43:32;28.75;;;14.60;;
23155;SDS011;11746;50.876;4.246;2022-12-18T15:48:39;29.40;;;15.80;;
23155;SDS011;11746;50.876;4.246;2022-12-18T15:53:54;27.67;;;14.60;;
23155;SDS011;11746;50.876;4.246;2022-12-18T15:56:22;54.35;;;24.83;;
23155;SDS011;11746;50.876;4.246;2022-12-18T15:59:10;142.32;;;58.47;;
23155;SDS011;11746;50.876;4.246;2022-12-18T16:01:42;37.53;;;19.30;;
23155;SDS011;11746;50.876;4.246;2022-12-18T16:04:14;48.42;;;23.27;;
23155;SDS011;11746;50.876;4.246;2022-12-18T16:06:41;45.55;;;23.17;;
23155;SDS011;11746;50.876;4.246;2022-12-18T16:09:09;41.03;;;21.10;;
23155;SDS011;11746;50.876;4.246;2022-12-18T16:11:37;37.40;;;19.60;;
23155;SDS011;11746;50.876;4.246;2022-12-18T16:16:48;30.38;;;15.43;;
23155;SDS011;11746;50.876;4.246;2022-12-18T16:19:19;26.88;;;15.98;;
23155;SDS011;11746;50.876;4.246;2022-12-18T16:21:46;28.27;;;16.20;;
23155;SDS011;11746;50.876;4.246;2022-12-18T16:26:46;29.48;;;15.10;;
23155;SDS011;11746;50.876;4.246;2022-12-18T16:29:13;29.25;;;16.10;;
23155;SDS011;11746;50.876;4.246;2022-12-18T16:31:39;34.28;;;17.42;;
23155;SDS011;11746;50.876;4.246;2022-12-18T16:34:26;37.90;;;19.73;;
23155;SDS011;11746;50.876;4.246;2022-12-18T16:36:55;34.17;;;16.75;;
23155;SDS011;11746;50.876;4.246;2022-12-18T16:39:22;28.70;;;15.02;;
23155;SDS011;11746;50.876;4.246;2022-12-18T16:41:48;27.30;;;14.88;;
23155;SDS011;11746;50.876;4.246;2022-12-18T16:44:14;27.52;;;14.45;;
23155;SDS011;11746;50.876;4.246;2022-12-18T16:46:42;38.15;;;18.25;;
23155;SDS011;11746;50.876;4.246;2022-12-18T16:49:13;47.75;;;23.52;;
23155;SDS011;11746;50.876;4.246;2022-12-18T16:51:42;28.20;;;15.30;;
23155;SDS011;11746;50.876;4.246;2022-12-18T16:54:09;25.65;;;14.48;;
23155;SDS011;11746;50.876;4.246;2022-12-18T16:56:35;26.55;;;14.82;;
23155;SDS011;11746;50.876;4.246;2022-12-18T16:59:03;46.50;;;23.50;;
23155;SDS011;11746;50.876;4.246;2022-12-18T17:01:30;32.13;;;17.85;;